27 de mayo de 2022

Hora Código Tiempo Temp. Visibilidad Cielo nuboso Viento METAR/SPECI
8:30 p. m.
V
70 °F 6¼ mi+ - 320° 320° 10 kt METAR LFBD 271830Z AUTO 32010KT 300V360 CAVOK 21/13 Q1023 NOSIG
8:00 p. m.
V
73 °F 6¼ mi+ - 320° 320° 10 kt METAR LFBD 271800Z AUTO 32010KT 300V360 CAVOK 23/13 Q1023 NOSIG
7:30 p. m.
V
73 °F 6¼ mi+ - 010° 010° 9 kt METAR LFBD 271730Z AUTO 01009KT 330V040 CAVOK 23/13 Q1023 NOSIG
7:00 p. m.
V
73 °F 6¼ mi+ - 360° 360° 7 kt METAR LFBD 271700Z AUTO 36007KT 320V040 CAVOK 23/12 Q1024 NOSIG
6:30 p. m.
V
73 °F 6¼ mi+ - 350° 350° 8 kt METAR LFBD 271630Z AUTO 35008KT 320V050 CAVOK 23/12 Q1024 NOSIG
6:00 p. m.
V
73 °F 6¼ mi+ - 020° 020° 9 kt METAR LFBD 271600Z AUTO 02009KT CAVOK 23/12 Q1024 NOSIG
5:30 p. m.
V
73 °F 6¼ mi+ - 360° 360° 8 kt METAR LFBD 271530Z AUTO 36008KT 320V040 CAVOK 23/12 Q1024 NOSIG
5:00 p. m.
V
73 °F 6¼ mi+ - 350° 350° 7 kt METAR LFBD 271500Z AUTO 35007KT 280V080 CAVOK 23/12 Q1024 NOSIG
4:30 p. m.
V
73 °F 6¼ mi+ - 330° 330° 6 kt METAR LFBD 271430Z AUTO 33006KT 280V040 CAVOK 23/12 Q1025 NOSIG
4:00 p. m.
V
72 °F 6¼ mi+ - 340° 340° 5 kt METAR LFBD 271400Z AUTO 34005KT 280V050 9999 FEW036 22/12 Q1025 NOSIG
3:30 p. m.
V
72 °F 6¼ mi+ - 330° 330° 5 kt METAR LFBD 271330Z AUTO 33005KT 280V030 9999 FEW035 22/12 Q1025 NOSIG
3:00 p. m.
V
72 °F 6¼ mi+ 3.300 ft 040° 040° 5 kt METAR LFBD 271300Z AUTO 04005KT 010V120 9999 BKN033 22/12 Q1026 NOSIG
2:30 p. m.
V
70 °F 6¼ mi+ 3.400 ft 340° 340° 6 kt METAR LFBD 271230Z AUTO 34006KT 290V040 9999 BKN034 21/12 Q1026 NOSIG
2:00 p. m.
V
72 °F 6¼ mi+ 3.700 ft 360° 360° 7 kt METAR LFBD 271200Z AUTO 36007KT 330V050 9999 FEW030 OVC037 22/13 Q1026 NOSIG
1:30 p. m.
V
68 °F 6¼ mi+ 3.600 ft 360° 360° 6 kt METAR LFBD 271130Z AUTO 36006KT 320V060 9999 SCT030 OVC036 20/12 Q1027 NOSIG
1:00 p. m.
V
68 °F 6¼ mi+ 3.400 ft 360° 360° 6 kt METAR LFBD 271100Z AUTO 36006KT 300V040 9999 OVC034 20/12 Q1027 NOSIG
12:30 p. m.
V
68 °F 6¼ mi+ 3.300 ft 320° 320° 7 kt METAR LFBD 271030Z AUTO 32007KT 290V040 9999 OVC033 20/12 Q1027 NOSIG
12:00 p. m.
V
68 °F 6¼ mi+ 3.500 ft 320° 320° 5 kt METAR LFBD 271000Z AUTO 32005KT 270V030 9999 FEW029 OVC035 20/12 Q1027 NOSIG
11:30 a. m.
V
68 °F 6¼ mi+ 3.500 ft 030° 030° 4 kt METAR LFBD 270930Z AUTO 03004KT 9999 FEW026 BKN035 20/12 Q1027 NOSIG
11:00 a. m.
V
66 °F 6¼ mi+ 3.700 ft 010° 010° 4 kt METAR LFBD 270900Z AUTO 01004KT 300V080 9999 SCT022 SCT027 OVC037 19/12 Q1027 NOSIG
10:30 a. m.
M
64 °F 6¼ mi+ 1.900 ft 340° 340° 5 kt METAR LFBD 270830Z AUTO 34005KT 300V070 9999 BKN019 OVC038 18/13 Q1027 NOSIG
10:00 a. m.
V
63 °F 6¼ mi+ 3.700 ft 360° 360° 6 kt METAR LFBD 270800Z AUTO 36006KT 340V050 9999 SCT017 OVC037 17/13 Q1027 NOSIG
9:30 a. m.
V
63 °F 6¼ mi+ 3.700 ft 350° 350° 3 kt METAR LFBD 270730Z AUTO 35003KT 320V050 9999 OVC037 17/13 Q1027 NOSIG
9:00 a. m.
V
61 °F 6¼ mi+ 3.700 ft 360° 360° 3 kt METAR LFBD 270700Z AUTO 36003KT 320V080 9999 OVC037 16/13 Q1027 NOSIG
8:30 a. m.
V
59 °F 6¼ mi+ 3.800 ft 350° 350° 4 kt METAR LFBD 270630Z AUTO 35004KT 330V070 9999 OVC038 15/13 Q1027 NOSIG
8:00 a. m.
V
57 °F 6¼ mi+ 3.800 ft Var Var 3 kt METAR LFBD 270600Z AUTO VRB03KT 9999 BKN038 14/13 Q1027 NOSIG
7:30 a. m.
V
55 °F 6¼ mi+ - 330° 330° 3 kt METAR LFBD 270530Z AUTO 33003KT 9999 FEW038 13/12 Q1027 NOSIG
7:00 a. m.
V
54 °F 6¼ mi+ - Var Var 3 kt METAR LFBD 270500Z AUTO VRB03KT CAVOK 12/12 Q1027 TEMPO 3000 BR
6:30 a. m.
V
54 °F 6¼ mi+ - Var Var 2 kt METAR LFBD 270430Z AUTO VRB02KT CAVOK 12/11 Q1027 TEMPO 3000 BR
6:00 a. m.
L
54 °F ⅜ mi - 300° 300° 1 kt METAR LFBD 270400Z AUTO 30001KT 9999 0650 R23/P2300 R05/1000U R29/P2300 BCFG FEW039 12/11 Q1027 TEMPO 3000 BR
5:30 a. m.
I
54 °F 1⅛ mi - 290° 290° 2 kt METAR LFBD 270330Z AUTO 29002KT 9999 1900 FEW038 12/11 Q1027 TEMPO 3000 BR
5:00 a. m.
L
55 °F ⅝ mi - 290° 290° 2 kt METAR LFBD 270300Z AUTO 29002KT 9999 1100 R23/P2300 R05/1200U R29/P2300 NSC 13/11 Q1027 TEMPO 3000 BR
4:30 a. m.
I
57 °F 1⅛ mi - 280° 280° 3 kt METAR LFBD 270230Z AUTO 28003KT 9999 1800 R05/1100U NSC 14/12 Q1027 TEMPO 3000 BR
4:00 a. m.
V
59 °F 6¼ mi+ - 240° 240° 2 kt METAR LFBD 270200Z AUTO 24002KT CAVOK 15/12 Q1027 TEMPO 3000 BR
3:30 a. m.
V
59 °F 6¼ mi+ - Var Var 4 kt METAR LFBD 270130Z AUTO VRB04KT CAVOK 15/12 Q1027 TEMPO 3000 BR
3:00 a. m.
V
61 °F 6¼ mi+ 3.600 ft 020° 020° 6 kt METAR LFBD 270100Z AUTO 02006KT 340V040 9999 BKN036 16/12 Q1027 TEMPO 3000 BR
2:30 a. m.
V
61 °F 6¼ mi+ 3.700 ft 360° 360° 6 kt METAR LFBD 270030Z AUTO 36006KT 320V040 9999 OVC037 16/13 Q1028 TEMPO 3000 BR
2:00 a. m.
V
61 °F 6¼ mi+ 3.700 ft 340° 340° 7 kt METAR LFBD 270000Z AUTO 34007KT 9999 OVC037 16/13 Q1028 TEMPO 3000 BR
1:30 a. m.
V
61 °F 6¼ mi+ 3.600 ft 330° 330° 6 kt METAR LFBD 262330Z AUTO 33006KT 9999 OVC036 16/13 Q1028 TEMPO 3000 BR
1:00 a. m.
V
61 °F 6¼ mi+ 3.600 ft 330° 330° 5 kt METAR LFBD 262300Z AUTO 33005KT 9999 OVC036 16/13 Q1028 TEMPO 3000 MIFG
12:30 a. m.
V
61 °F 6¼ mi+ 3.600 ft 320° 320° 5 kt METAR LFBD 262230Z AUTO 32005KT 9999 OVC036 16/13 Q1028 TEMPO 3000 MIFG
12:00 a. m.
V
61 °F 6¼ mi+ 3.500 ft 320° 320° 6 kt METAR LFBD 262200Z AUTO 32006KT 310V040 9999 OVC035 16/13 Q1028 NOSIG

26 de mayo de 2022

Hora Código Tiempo Temp. Visibilidad Cielo nuboso Viento METAR/SPECI
11:30 p. m.
V
61 °F 6¼ mi+ 3.500 ft 330° 330° 7 kt METAR LFBD 262130Z AUTO 33007KT 9999 OVC035 16/13 Q1028 NOSIG
11:00 p. m.
V
61 °F 6¼ mi+ 3.600 ft 320° 320° 7 kt METAR LFBD 262100Z AUTO 32007KT 9999 OVC036 16/13 Q1028 NOSIG
10:30 p. m.
V
63 °F 6¼ mi+ 3.600 ft 320° 320° 6 kt METAR LFBD 262030Z AUTO 32006KT 9999 OVC036 17/12 Q1028 NOSIG
10:00 p. m.
V
63 °F 6¼ mi+ 3.500 ft 320° 320° 6 kt METAR LFBD 262000Z AUTO 32006KT 9999 OVC035 17/12 Q1028 NOSIG
9:30 p. m.
V
63 °F 6¼ mi+ 3.500 ft 310° 310° 8 kt METAR LFBD 261930Z AUTO 31008KT 9999 OVC035 17/12 Q1028 NOSIG
9:00 p. m.
V
63 °F 6¼ mi+ 3.600 ft 320° 320° 7 kt METAR LFBD 261900Z AUTO 32007KT 290V350 9999 OVC036 17/13 Q1027 NOSIG
8:30 p. m.
V
64 °F 6¼ mi+ 3.500 ft 330° 330° 7 kt METAR LFBD 261830Z AUTO 33007KT 9999 OVC035 18/12 Q1027 NOSIG
8:00 p. m.
V
64 °F 6¼ mi+ 3.400 ft 330° 330° 8 kt METAR LFBD 261800Z AUTO 33008KT 9999 OVC034 18/13 Q1027 NOSIG
7:30 p. m.
V
64 °F 6¼ mi+ 3.300 ft 340° 340° 9 kt METAR LFBD 261730Z AUTO 34009KT 320V030 9999 OVC033 18/13 Q1027 NOSIG
7:00 p. m.
V
66 °F 6¼ mi+ 3.700 ft 340° 340° 10 kt METAR LFBD 261700Z AUTO 34010KT 320V050 9999 OVC037 19/13 Q1027 NOSIG
6:30 p. m.
V
66 °F 6¼ mi+ 4.000 ft 350° 350° 10 kt METAR LFBD 261630Z AUTO 35010KT 9999 FEW025 OVC040 19/12 Q1027 NOSIG
6:00 p. m.
V
68 °F 6¼ mi+ 3.900 ft 350° 350° 9 kt METAR LFBD 261600Z AUTO 35009KT 330V040 9999 FEW029 OVC039 20/13 Q1027 NOSIG
5:30 p. m.
V
68 °F 6¼ mi+ 3.900 ft 340° 340° 8 kt METAR LFBD 261530Z AUTO 34008KT 310V060 9999 FEW028 OVC039 20/13 Q1027 NOSIG
5:00 p. m.
V
68 °F 6¼ mi+ 3.800 ft 360° 360° 8 kt METAR LFBD 261500Z AUTO 36008KT 320V070 9999 FEW028 OVC038 20/13 Q1028 NOSIG
4:30 p. m.
V
68 °F 6¼ mi+ 3.800 ft 360° 360° 8 kt METAR LFBD 261430Z AUTO 36008KT 320V050 9999 SCT031 OVC038 20/12 Q1028 NOSIG
4:00 p. m.
V
68 °F 6¼ mi+ 3.100 ft 320° 320° 7 kt METAR LFBD 261400Z AUTO 32007KT 290V020 9999 BKN031 OVC038 20/12 Q1028 NOSIG
3:30 p. m.
V
68 °F 6¼ mi+ 3.600 ft 340° 340° 5 kt METAR LFBD 261330Z AUTO 34005KT 310V030 9999 OVC036 20/11 Q1028 NOSIG
3:00 p. m.
V
66 °F 6¼ mi+ 3.500 ft 320° 320° 5 kt METAR LFBD 261300Z AUTO 32005KT 290V350 9999 OVC035 19/11 Q1028 NOSIG
2:30 p. m.
V
66 °F 6¼ mi+ 3.600 ft 330° 330° 6 kt METAR LFBD 261230Z AUTO 33006KT 240V020 9999 SCT030 OVC036 19/11 Q1028 NOSIG
2:00 p. m.
V
66 °F 6¼ mi+ 3.300 ft 300° 300° 5 kt METAR LFBD 261200Z AUTO 30005KT 260V350 9999 OVC033 19/12 Q1028 NOSIG
1:30 p. m.
V
66 °F 6¼ mi+ 3.400 ft 310° 310° 9 kt METAR LFBD 261130Z AUTO 31009KT 9999 BKN034 OVC040 19/12 Q1028 NOSIG
1:00 p. m.
V
68 °F 6¼ mi+ 3.900 ft 010° 010° 4 kt METAR LFBD 261100Z AUTO 01004KT 290V060 9999 FEW031 OVC039 20/11 Q1028 NOSIG
12:30 p. m.
V
66 °F 6¼ mi+ 3.700 ft 350° 350° 7 kt METAR LFBD 261030Z AUTO 35007KT 320V050 9999 OVC037 19/11 Q1029 NOSIG
12:00 p. m.
V
64 °F 6¼ mi+ 3.600 ft 340° 340° 8 kt METAR LFBD 261000Z AUTO 34008KT 300V020 9999 OVC036 18/11 Q1029 NOSIG
11:30 a. m.
V
63 °F 6¼ mi+ 3.600 ft 340° 340° 7 kt METAR LFBD 260930Z AUTO 34007KT 290V020 9999 FEW019 OVC036 17/12 Q1029 NOSIG
11:00 a. m.
V
63 °F 6¼ mi+ 3.700 ft 340° 340° 7 kt METAR LFBD 260900Z AUTO 34007KT 310V030 9999 SCT017 SCT024 OVC037 17/13 Q1028 TEMPO BKN013
10:30 a. m.
M
63 °F 6¼ mi+ 1.700 ft 340° 340° 4 kt METAR LFBD 260830Z AUTO 34004KT 300V030 9999 BKN017 BKN023 OVC038 17/13 Q1028 NOSIG
10:00 a. m.
M
61 °F 6¼ mi+ 1.500 ft Var Var 3 kt METAR LFBD 260800Z AUTO VRB03KT 9999 BKN015 BKN020 OVC038 16/13 Q1028 NOSIG
9:30 a. m.
M
61 °F 6¼ mi+ 2.200 ft Var Var 2 kt METAR LFBD 260730Z AUTO VRB02KT 9999 SCT016 BKN022 OVC037 16/13 Q1028 NOSIG
9:00 a. m.
V
61 °F 6¼ mi+ 3.600 ft Var Var 2 kt METAR LFBD 260700Z AUTO VRB02KT 9999 FEW024 BKN036 OVC043 16/13 Q1028 TEMPO 3000 -RADZ BKN007
8:30 a. m.
V
59 °F 6¼ mi+ 3.300 ft Var 000° 0 kt METAR LFBD 260630Z AUTO 00000KT 9999 SCT026 BKN033 OVC043 15/13 Q1028 TEMPO 3000 -RADZ BKN007
8:00 a. m.
M
57 °F 6¼ mi+ 2.500 ft Var Var 2 kt METAR LFBD 260600Z AUTO VRB02KT 9999 FEW005 BKN025 OVC032 14/13 Q1027 TEMPO 3000 -RADZ BKN007
7:30 a. m.
L
57 °F 1¼ mi 400 ft 350° 350° 6 kt METAR LFBD 260530Z AUTO 35006KT 330V050 2000 BR BKN004 BKN010 OVC016 14/13 Q1027 TEMPO 3000 -RADZ BKN007
7:00 a. m.
I
57 °F 3 mi 1.300 ft 270° 270° 3 kt METAR LFBD 260500Z AUTO 27003KT 4900 BR SCT008 BKN013 BKN019 14/13 Q1027 BECMG CAVOK
6:30 a. m.
M
57 °F 6¼ mi+ 2.600 ft 290° 290° 7 kt METAR LFBD 260430Z AUTO 29007KT 9999 OVC026 14/13 Q1027 NOSIG
6:00 a. m.
V
57 °F 6¼ mi+ 3.300 ft Var Var 3 kt METAR LFBD 260400Z AUTO VRB03KT 9999 BKN033 OVC042 14/12 Q1027 NOSIG
5:30 a. m.
V
57 °F 6¼ mi+ 4.000 ft 240° 240° 3 kt METAR LFBD 260330Z AUTO 24003KT 9999 SCT033 OVC040 14/12 Q1026 NOSIG
5:00 a. m.
V
55 °F 6¼ mi+ 4.100 ft 230° 230° 2 kt METAR LFBD 260300Z AUTO 23002KT 9999 BKN041 BKN047 13/12 Q1027 NOSIG
4:30 a. m.
V
57 °F 6¼ mi+ 4.600 ft 230° 230° 3 kt METAR LFBD 260230Z AUTO 23003KT 9999 OVC046 14/12 Q1027 NOSIG
4:00 a. m.
V
55 °F 6¼ mi+ 3.500 ft 240° 240° 2 kt METAR LFBD 260200Z AUTO 24002KT 9999 FEW030 BKN035 OVC047 13/12 Q1027 NOSIG
3:30 a. m.
M
55 °F 6¼ mi+ 2.600 ft 240° 240° 3 kt METAR LFBD 260130Z AUTO 24003KT 9999 FEW012 OVC026 13/12 Q1027 NOSIG
3:00 a. m.
I
55 °F 3 mi 1.700 ft Var Var 3 kt METAR LFBD 260100Z AUTO VRB03KT 9999 4900 BKN017 BKN022 OVC028 13/11 Q1027 NOSIG
2:30 a. m.
V
55 °F 6¼ mi+ 4.300 ft 240° 240° 3 kt METAR LFBD 260030Z AUTO 24003KT 9999 SCT020 SCT025 OVC043 13/11 Q1027 NOSIG
2:00 a. m.
V
55 °F 6¼ mi+ 4.100 ft 240° 240° 4 kt METAR LFBD 260000Z AUTO 24004KT 9999 BKN041 13/11 Q1027 NOSIG
1:30 a. m.
V
54 °F 6¼ mi+ 4.200 ft 230° 230° 4 kt METAR LFBD 252330Z AUTO 23004KT 9999 BKN042 12/10 Q1027 NOSIG
1:00 a. m.
V
54 °F 6¼ mi+ - 230° 230° 4 kt METAR LFBD 252300Z AUTO 23004KT CAVOK 12/10 Q1027 NOSIG
12:30 a. m.
V
55 °F 6¼ mi+ - 210° 210° 3 kt METAR LFBD 252230Z AUTO 21003KT CAVOK 13/10 Q1027 NOSIG
12:00 a. m.
V
55 °F 6¼ mi+ - 220° 220° 3 kt METAR LFBD 252200Z AUTO 22003KT CAVOK 13/10 Q1027 NOSIG

25 de mayo de 2022

Hora Código Tiempo Temp. Visibilidad Cielo nuboso Viento METAR/SPECI
11:30 p. m.
V
57 °F 6¼ mi+ - 260° 260° 4 kt METAR LFBD 252130Z AUTO 26004KT CAVOK 14/10 Q1027 NOSIG
11:00 p. m.
V
57 °F 6¼ mi+ - 280° 280° 5 kt METAR LFBD 252100Z AUTO 28005KT CAVOK 14/10 Q1027 NOSIG
10:30 p. m.
V
59 °F 6¼ mi+ - 290° 290° 4 kt METAR LFBD 252030Z AUTO 29004KT CAVOK 15/10 Q1027 NOSIG
10:00 p. m.
V
59 °F 6¼ mi+ - 300° 300° 5 kt METAR LFBD 252000Z AUTO 30005KT 280V340 CAVOK 15/10 Q1026 NOSIG
9:30 p. m.
V
61 °F 6¼ mi+ - 310° 310° 7 kt METAR LFBD 251930Z AUTO 31007KT CAVOK 16/09 Q1026 NOSIG
9:00 p. m.
V
63 °F 6¼ mi+ - 310° 310° 10 kt METAR LFBD 251900Z AUTO 31010KT CAVOK 17/10 Q1026 NOSIG
8:30 p. m.
V
64 °F 6¼ mi+ - 300° 300° 11 kt METAR LFBD 251830Z AUTO 30011KT CAVOK 18/10 Q1025 NOSIG
8:00 p. m.
V
66 °F 6¼ mi+ - 320° 320° 11 kt METAR LFBD 251800Z AUTO 32011KT 9999 FEW037 19/09 Q1025 NOSIG
7:30 p. m.
V
66 °F 6¼ mi+ - 320° 320° 11 kt METAR LFBD 251730Z AUTO 32011KT 290V010 9999 FEW043 19/09 Q1025 NOSIG
7:00 p. m.
V
68 °F 6¼ mi+ - 310° 310° 11 kt METAR LFBD 251700Z AUTO 31011KT 9999 FEW043 20/08 Q1024 NOSIG
6:30 p. m.
V
68 °F 6¼ mi+ - 330° 330° 12 kt METAR LFBD 251630Z AUTO 33012KT CAVOK 20/07 Q1024 NOSIG
6:00 p. m.
V
68 °F 6¼ mi+ - 320° 320° 11 kt METAR LFBD 251600Z AUTO 32011KT 280V020 9999 FEW048 20/08 Q1024 NOSIG
5:30 p. m.
V
70 °F 6¼ mi+ - 300° 300° 10 kt METAR LFBD 251530Z AUTO 30010KT 280V340 9999 FEW048 21/08 Q1024 NOSIG
5:00 p. m.
V
70 °F 6¼ mi+ - 310° 310° 11 kt METAR LFBD 251500Z AUTO 31011KT 270V330 9999 FEW048 21/09 Q1023 NOSIG
Datos más antiguos

Descarga nuestra aplicación

Acceso fácil a todo el tiempo de la aviación en tu teléfono móvil y tableta.
Con muchas funciones no disponibles en el sitio web, como la compatibilidad sin conexión y una lista personal de aeropuertos.

Nosotros y terceros seguimos tu comportamiento en Internet en nuestro sitio web con cookies. Si continúas, asumimos que estás de acuerdo con nuestra política de cookies. Más información